메인 페이지
METAR-TAF:

METAR-TAF

공항 :

진나 국제공항

카라치, 파키스탄

위도: 24-54N, 경도: 067-08E, 고도: 21m

현재 날씨관측

예보는 1 시간 0분 전, 21:55시(UTC)에 발표되었습니다.
서남서13kt
온도 30°C
습도 79%
기압 1001 hPa
시정: 6000m
고도 2000ft 상공 구름 보통

METAR: OPKC 282155Z 25013KT 6000 SCT020 30/26 Q1001 NOSIG

시각: 03:55 (22:55 UTC)

예보

예보는 6 시간 55분 전, 16:00시(UTC)에 발표되었습니다.
예보 대상 시간: 28일 18시부터 29일 24시까지 (UTC)
15kt, 순간 최대 풍속 25kt
시정: 3000m
날린먼지
일시적
29일 00시부터 29일 04시까지 (UTC)
12kt
시정: 4000m
황사
시부터 (UTC)
10kt, 순간 최대 풍속 20kt
시정: 4000m
연무

TAF: OPKC 281600Z 2818/2924 26015G25KT 3000 BLDU NSC TEMPO 2900/2904 26012KT 4000 DU NSC FM 291600 26010G20KT 4000 HZ NSC

4,000개 이상의 공항 관측 자료 및 예보 (METAR 및 TAF 보고).

지도상에서 검색 가능한 기상관측소가 노란 점과 빨간 점으로 표시되어 있습니다.

기상관측소 명을 보려면 표시 위로 마우스를 이동하세요.

날씨 관측과 예보를 보려면 클릭하세요.

지도 변경 : 확대하려면 엑스 표시가 있는 녹색 버튼, 축소하려면 빼기 표시가 있는 녹색 버튼, 다음 페이지의 지도를 보려면 녹색 화살표를 클릭하세요.


METAR-TAF: